sensor_id;sensor_type;location;lat;lon;timestamp;P1;durP1;ratioP1;P2;durP2;ratioP2
21237;SDS011;10777;50.828;3.264;2022-12-07T00:00:29;14.73;;;8.60;;
21237;SDS011;10777;50.828;3.264;2022-12-07T00:02:55;14.17;;;7.90;;
21237;SDS011;10777;50.828;3.264;2022-12-07T00:05:20;14.23;;;7.47;;
21237;SDS011;10777;50.828;3.264;2022-12-07T00:07:46;13.83;;;7.50;;
21237;SDS011;10777;50.828;3.264;2022-12-07T00:10:12;17.43;;;7.83;;
21237;SDS011;10777;50.828;3.264;2022-12-07T00:12:37;17.13;;;7.33;;
21237;SDS011;10777;50.828;3.264;2022-12-07T00:15:03;13.73;;;7.07;;
21237;SDS011;10777;50.828;3.264;2022-12-07T00:17:29;14.57;;;7.70;;
21237;SDS011;10777;50.828;3.264;2022-12-07T00:19:55;19.23;;;7.53;;
21237;SDS011;10777;50.828;3.264;2022-12-07T00:22:20;13.67;;;7.23;;
21237;SDS011;10777;50.828;3.264;2022-12-07T00:24:46;16.03;;;7.50;;
21237;SDS011;10777;50.828;3.264;2022-12-07T00:27:11;14.63;;;7.13;;
21237;SDS011;10777;50.828;3.264;2022-12-07T00:29:37;13.83;;;6.97;;
21237;SDS011;10777;50.828;3.264;2022-12-07T00:32:03;12.23;;;7.57;;
21237;SDS011;10777;50.828;3.264;2022-12-07T00:34:29;19.50;;;8.17;;
21237;SDS011;10777;50.828;3.264;2022-12-07T00:36:55;17.87;;;8.10;;
21237;SDS011;10777;50.828;3.264;2022-12-07T00:39:20;11.43;;;7.43;;
21237;SDS011;10777;50.828;3.264;2022-12-07T00:41:46;15.73;;;7.90;;
21237;SDS011;10777;50.828;3.264;2022-12-07T00:44:12;13.37;;;7.43;;
21237;SDS011;10777;50.828;3.264;2022-12-07T00:46:38;18.03;;;7.80;;
21237;SDS011;10777;50.828;3.264;2022-12-07T00:49:03;16.27;;;7.90;;
21237;SDS011;10777;50.828;3.264;2022-12-07T00:51:29;17.67;;;7.67;;
21237;SDS011;10777;50.828;3.264;2022-12-07T00:53:55;11.80;;;8.27;;
21237;SDS011;10777;50.828;3.264;2022-12-07T00:56:22;17.40;;;7.57;;
21237;SDS011;10777;50.828;3.264;2022-12-07T00:58:51;17.87;;;7.43;;
21237;SDS011;10777;50.828;3.264;2022-12-07T01:01:17;18.53;;;7.63;;
21237;SDS011;10777;50.828;3.264;2022-12-07T01:03:43;15.17;;;7.00;;
21237;SDS011;10777;50.828;3.264;2022-12-07T01:06:09;13.40;;;7.80;;
21237;SDS011;10777;50.828;3.264;2022-12-07T01:08:38;13.30;;;7.70;;
21237;SDS011;10777;50.828;3.264;2022-12-07T01:11:05;14.60;;;7.70;;
21237;SDS011;10777;50.828;3.264;2022-12-07T01:13:33;13.03;;;7.43;;
21237;SDS011;10777;50.828;3.264;2022-12-07T01:16:01;15.33;;;7.93;;
21237;SDS011;10777;50.828;3.264;2022-12-07T01:18:31;19.30;;;7.33;;
21237;SDS011;10777;50.828;3.264;2022-12-07T01:21:00;11.70;;;7.07;;
21237;SDS011;10777;50.828;3.264;2022-12-07T01:23:28;13.50;;;6.50;;
21237;SDS011;10777;50.828;3.264;2022-12-07T01:25:55;15.20;;;7.20;;
21237;SDS011;10777;50.828;3.264;2022-12-07T01:28:22;15.40;;;6.67;;
21237;SDS011;10777;50.828;3.264;2022-12-07T01:30:56;14.77;;;7.50;;
21237;SDS011;10777;50.828;3.264;2022-12-07T01:33:28;12.33;;;7.10;;
21237;SDS011;10777;50.828;3.264;2022-12-07T01:36:00;12.17;;;6.97;;
21237;SDS011;10777;50.828;3.264;2022-12-07T01:38:27;10.73;;;6.50;;
21237;SDS011;10777;50.828;3.264;2022-12-07T01:40:55;13.60;;;7.03;;
21237;SDS011;10777;50.828;3.264;2022-12-07T01:43:21;11.03;;;6.50;;
21237;SDS011;10777;50.828;3.264;2022-12-07T01:45:48;12.13;;;6.70;;
21237;SDS011;10777;50.828;3.264;2022-12-07T01:48:15;12.47;;;6.60;;
21237;SDS011;10777;50.828;3.264;2022-12-07T01:50:44;13.63;;;6.80;;
21237;SDS011;10777;50.828;3.264;2022-12-07T01:53:13;12.70;;;6.30;;
21237;SDS011;10777;50.828;3.264;2022-12-07T01:55:40;11.17;;;5.60;;
21237;SDS011;10777;50.828;3.264;2022-12-07T01:58:09;14.43;;;6.13;;
21237;SDS011;10777;50.828;3.264;2022-12-07T02:00:36;12.77;;;5.87;;
21237;SDS011;10777;50.828;3.264;2022-12-07T02:03:04;14.53;;;6.07;;
21237;SDS011;10777;50.828;3.264;2022-12-07T02:05:36;9.73;;;5.87;;
21237;SDS011;10777;50.828;3.264;2022-12-07T02:08:05;9.97;;;6.03;;
21237;SDS011;10777;50.828;3.264;2022-12-07T02:10:32;12.90;;;5.80;;
21237;SDS011;10777;50.828;3.264;2022-12-07T02:12:59;10.23;;;5.50;;
21237;SDS011;10777;50.828;3.264;2022-12-07T02:15:33;9.57;;;5.17;;
21237;SDS011;10777;50.828;3.264;2022-12-07T02:18:09;10.00;;;5.07;;
21237;SDS011;10777;50.828;3.264;2022-12-07T02:20:50;10.47;;;5.50;;
21237;SDS011;10777;50.828;3.264;2022-12-07T02:23:28;11.53;;;5.33;;
21237;SDS011;10777;50.828;3.264;2022-12-07T02:29:13;10.37;;;5.00;;
21237;SDS011;10777;50.828;3.264;2022-12-07T02:31:51;12.27;;;5.20;;
21237;SDS011;10777;50.828;3.264;2022-12-07T02:34:30;15.20;;;5.73;;
21237;SDS011;10777;50.828;3.264;2022-12-07T02:37:05;11.63;;;5.17;;
21237;SDS011;10777;50.828;3.264;2022-12-07T02:39:43;12.57;;;5.27;;
21237;SDS011;10777;50.828;3.264;2022-12-07T02:42:17;16.40;;;5.30;;
21237;SDS011;10777;50.828;3.264;2022-12-07T02:44:48;13.10;;;5.23;;
21237;SDS011;10777;50.828;3.264;2022-12-07T02:47:15;12.23;;;5.37;;
21237;SDS011;10777;50.828;3.264;2022-12-07T02:49:44;10.73;;;5.10;;
21237;SDS011;10777;50.828;3.264;2022-12-07T02:52:11;13.17;;;5.37;;
21237;SDS011;10777;50.828;3.264;2022-12-07T02:54:36;11.10;;;4.73;;
21237;SDS011;10777;50.828;3.264;2022-12-07T02:57:16;10.30;;;5.27;;
21237;SDS011;10777;50.828;3.264;2022-12-07T03:00:00;16.07;;;5.20;;
21237;SDS011;10777;50.828;3.264;2022-12-07T03:05:23;8.30;;;4.07;;
21237;SDS011;10777;50.828;3.264;2022-12-07T03:11:11;11.97;;;4.93;;
21237;SDS011;10777;50.828;3.264;2022-12-07T03:13:42;17.63;;;5.13;;
21237;SDS011;10777;50.828;3.264;2022-12-07T03:16:33;12.77;;;4.80;;
21237;SDS011;10777;50.828;3.264;2022-12-07T03:19:10;14.87;;;4.27;;
21237;SDS011;10777;50.828;3.264;2022-12-07T03:21:40;9.43;;;4.37;;
21237;SDS011;10777;50.828;3.264;2022-12-07T03:24:12;7.33;;;4.20;;
21237;SDS011;10777;50.828;3.264;2022-12-07T03:26:43;10.90;;;4.33;;
21237;SDS011;10777;50.828;3.264;2022-12-07T03:29:20;11.90;;;4.50;;
21237;SDS011;10777;50.828;3.264;2022-12-07T03:31:59;10.43;;;4.50;;
21237;SDS011;10777;50.828;3.264;2022-12-07T03:34:32;7.30;;;3.77;;
21237;SDS011;10777;50.828;3.264;2022-12-07T03:37:03;9.90;;;4.50;;
21237;SDS011;10777;50.828;3.264;2022-12-07T03:39:35;9.03;;;3.93;;
21237;SDS011;10777;50.828;3.264;2022-12-07T03:42:10;9.03;;;4.10;;
21237;SDS011;10777;50.828;3.264;2022-12-07T03:44:36;12.63;;;4.43;;
21237;SDS011;10777;50.828;3.264;2022-12-07T03:47:04;11.93;;;4.80;;
21237;SDS011;10777;50.828;3.264;2022-12-07T03:49:40;8.30;;;4.00;;
21237;SDS011;10777;50.828;3.264;2022-12-07T03:52:28;10.37;;;4.50;;
21237;SDS011;10777;50.828;3.264;2022-12-07T03:55:05;9.73;;;5.33;;
21237;SDS011;10777;50.828;3.264;2022-12-07T03:57:36;11.20;;;5.17;;
21237;SDS011;10777;50.828;3.264;2022-12-07T04:00:04;12.07;;;4.40;;
21237;SDS011;10777;50.828;3.264;2022-12-07T04:02:31;11.80;;;5.30;;
21237;SDS011;10777;50.828;3.264;2022-12-07T04:04:58;8.37;;;4.40;;
21237;SDS011;10777;50.828;3.264;2022-12-07T04:07:24;9.80;;;5.47;;
21237;SDS011;10777;50.828;3.264;2022-12-07T04:09:50;9.83;;;5.03;;
21237;SDS011;10777;50.828;3.264;2022-12-07T04:12:16;8.50;;;4.43;;
21237;SDS011;10777;50.828;3.264;2022-12-07T04:14:41;10.93;;;4.67;;
21237;SDS011;10777;50.828;3.264;2022-12-07T04:17:08;11.57;;;4.97;;
21237;SDS011;10777;50.828;3.264;2022-12-07T04:19:34;9.73;;;4.30;;
21237;SDS011;10777;50.828;3.264;2022-12-07T04:22:00;10.90;;;4.53;;
21237;SDS011;10777;50.828;3.264;2022-12-07T04:24:28;16.90;;;5.20;;
21237;SDS011;10777;50.828;3.264;2022-12-07T04:26:54;13.03;;;5.00;;
21237;SDS011;10777;50.828;3.264;2022-12-07T04:29:20;12.37;;;5.60;;
21237;SDS011;10777;50.828;3.264;2022-12-07T04:31:46;12.77;;;5.60;;
21237;SDS011;10777;50.828;3.264;2022-12-07T04:34:13;12.33;;;5.77;;
21237;SDS011;10777;50.828;3.264;2022-12-07T04:36:39;16.83;;;5.87;;
21237;SDS011;10777;50.828;3.264;2022-12-07T04:39:05;13.57;;;5.83;;
21237;SDS011;10777;50.828;3.264;2022-12-07T04:41:32;18.47;;;6.47;;
21237;SDS011;10777;50.828;3.264;2022-12-07T04:44:00;15.63;;;6.07;;
21237;SDS011;10777;50.828;3.264;2022-12-07T04:46:28;13.20;;;6.60;;
21237;SDS011;10777;50.828;3.264;2022-12-07T04:48:55;15.33;;;6.47;;
21237;SDS011;10777;50.828;3.264;2022-12-07T04:51:23;13.17;;;6.27;;
21237;SDS011;10777;50.828;3.264;2022-12-07T04:53:50;20.13;;;7.40;;
21237;SDS011;10777;50.828;3.264;2022-12-07T04:56:16;13.40;;;6.20;;
21237;SDS011;10777;50.828;3.264;2022-12-07T04:58:43;17.40;;;6.90;;
21237;SDS011;10777;50.828;3.264;2022-12-07T05:01:10;14.63;;;6.60;;
21237;SDS011;10777;50.828;3.264;2022-12-07T05:03:36;12.90;;;6.73;;
21237;SDS011;10777;50.828;3.264;2022-12-07T05:06:03;14.93;;;7.17;;
21237;SDS011;10777;50.828;3.264;2022-12-07T05:08:29;16.37;;;6.13;;
21237;SDS011;10777;50.828;3.264;2022-12-07T05:10:55;15.90;;;5.77;;
21237;SDS011;10777;50.828;3.264;2022-12-07T05:13:21;21.87;;;6.57;;
21237;SDS011;10777;50.828;3.264;2022-12-07T05:15:47;13.17;;;5.50;;
21237;SDS011;10777;50.828;3.264;2022-12-07T05:18:13;13.13;;;6.03;;
21237;SDS011;10777;50.828;3.264;2022-12-07T05:20:39;17.23;;;5.93;;
21237;SDS011;10777;50.828;3.264;2022-12-07T05:23:05;12.17;;;6.17;;
21237;SDS011;10777;50.828;3.264;2022-12-07T05:25:31;17.40;;;6.30;;
21237;SDS011;10777;50.828;3.264;2022-12-07T05:27:57;15.93;;;6.17;;
21237;SDS011;10777;50.828;3.264;2022-12-07T05:30:23;16.23;;;6.27;;
21237;SDS011;10777;50.828;3.264;2022-12-07T05:32:50;12.90;;;5.97;;
21237;SDS011;10777;50.828;3.264;2022-12-07T05:35:16;13.73;;;5.13;;
21237;SDS011;10777;50.828;3.264;2022-12-07T05:37:42;13.57;;;5.70;;
21237;SDS011;10777;50.828;3.264;2022-12-07T05:40:08;16.57;;;5.53;;
21237;SDS011;10777;50.828;3.264;2022-12-07T05:42:35;14.93;;;6.33;;
21237;SDS011;10777;50.828;3.264;2022-12-07T05:45:01;10.53;;;5.80;;
21237;SDS011;10777;50.828;3.264;2022-12-07T05:47:26;12.73;;;5.00;;
21237;SDS011;10777;50.828;3.264;2022-12-07T05:49:52;14.83;;;6.70;;
21237;SDS011;10777;50.828;3.264;2022-12-07T05:52:18;13.53;;;6.00;;
21237;SDS011;10777;50.828;3.264;2022-12-07T05:54:43;9.93;;;5.33;;
21237;SDS011;10777;50.828;3.264;2022-12-07T05:57:09;12.37;;;5.23;;
21237;SDS011;10777;50.828;3.264;2022-12-07T05:59:36;18.40;;;6.83;;
21237;SDS011;10777;50.828;3.264;2022-12-07T06:02:02;9.60;;;5.17;;
21237;SDS011;10777;50.828;3.264;2022-12-07T06:04:32;14.53;;;5.30;;
21237;SDS011;10777;50.828;3.264;2022-12-07T06:06:59;13.67;;;6.00;;
21237;SDS011;10777;50.828;3.264;2022-12-07T06:09:26;11.27;;;5.23;;
21237;SDS011;10777;50.828;3.264;2022-12-07T06:11:53;16.03;;;6.53;;
21237;SDS011;10777;50.828;3.264;2022-12-07T06:14:39;13.97;;;5.87;;
21237;SDS011;10777;50.828;3.264;2022-12-07T06:17:05;11.10;;;5.13;;
21237;SDS011;10777;50.828;3.264;2022-12-07T06:19:31;10.23;;;5.57;;
21237;SDS011;10777;50.828;3.264;2022-12-07T06:21:57;16.60;;;5.57;;
21237;SDS011;10777;50.828;3.264;2022-12-07T06:24:24;24.50;;;5.70;;
21237;SDS011;10777;50.828;3.264;2022-12-07T06:26:49;12.20;;;5.30;;
21237;SDS011;10777;50.828;3.264;2022-12-07T06:29:16;14.63;;;5.13;;
21237;SDS011;10777;50.828;3.264;2022-12-07T06:31:42;15.00;;;5.23;;
21237;SDS011;10777;50.828;3.264;2022-12-07T06:34:09;14.13;;;5.23;;
21237;SDS011;10777;50.828;3.264;2022-12-07T06:36:37;11.80;;;4.93;;
21237;SDS011;10777;50.828;3.264;2022-12-07T06:39:03;14.80;;;6.40;;
21237;SDS011;10777;50.828;3.264;2022-12-07T06:41:29;12.83;;;5.53;;
21237;SDS011;10777;50.828;3.264;2022-12-07T06:43:55;21.43;;;5.43;;
21237;SDS011;10777;50.828;3.264;2022-12-07T06:46:21;12.63;;;5.10;;
21237;SDS011;10777;50.828;3.264;2022-12-07T06:48:46;15.23;;;5.20;;
21237;SDS011;10777;50.828;3.264;2022-12-07T06:51:12;9.47;;;4.20;;
21237;SDS011;10777;50.828;3.264;2022-12-07T06:53:38;19.43;;;5.03;;
21237;SDS011;10777;50.828;3.264;2022-12-07T06:56:04;10.07;;;5.37;;
21237;SDS011;10777;50.828;3.264;2022-12-07T06:58:30;8.77;;;5.20;;
21237;SDS011;10777;50.828;3.264;2022-12-07T07:00:55;17.53;;;5.30;;
21237;SDS011;10777;50.828;3.264;2022-12-07T07:03:21;10.17;;;5.40;;
21237;SDS011;10777;50.828;3.264;2022-12-07T07:05:47;10.10;;;5.40;;
21237;SDS011;10777;50.828;3.264;2022-12-07T07:08:13;18.10;;;5.50;;
21237;SDS011;10777;50.828;3.264;2022-12-07T07:10:40;15.03;;;6.53;;
21237;SDS011;10777;50.828;3.264;2022-12-07T07:13:06;15.60;;;6.00;;
21237;SDS011;10777;50.828;3.264;2022-12-07T07:15:33;17.67;;;6.50;;
21237;SDS011;10777;50.828;3.264;2022-12-07T07:17:59;18.23;;;6.13;;
21237;SDS011;10777;50.828;3.264;2022-12-07T07:20:25;16.77;;;5.93;;
21237;SDS011;10777;50.828;3.264;2022-12-07T07:22:53;18.97;;;6.80;;
21237;SDS011;10777;50.828;3.264;2022-12-07T07:25:20;11.83;;;4.90;;
21237;SDS011;10777;50.828;3.264;2022-12-07T07:27:46;12.43;;;5.10;;
21237;SDS011;10777;50.828;3.264;2022-12-07T07:30:12;17.67;;;5.57;;
21237;SDS011;10777;50.828;3.264;2022-12-07T07:32:38;15.03;;;4.67;;
21237;SDS011;10777;50.828;3.264;2022-12-07T07:35:04;10.63;;;4.80;;
21237;SDS011;10777;50.828;3.264;2022-12-07T07:37:30;35.57;;;6.50;;
21237;SDS011;10777;50.828;3.264;2022-12-07T07:39:56;29.13;;;6.70;;
21237;SDS011;10777;50.828;3.264;2022-12-07T07:42:21;23.40;;;5.83;;
21237;SDS011;10777;50.828;3.264;2022-12-07T07:44:47;21.23;;;5.33;;
21237;SDS011;10777;50.828;3.264;2022-12-07T07:47:13;15.00;;;5.73;;
21237;SDS011;10777;50.828;3.264;2022-12-07T07:49:38;9.57;;;5.03;;
21237;SDS011;10777;50.828;3.264;2022-12-07T07:52:05;16.70;;;5.00;;
21237;SDS011;10777;50.828;3.264;2022-12-07T07:54:31;13.87;;;4.80;;
21237;SDS011;10777;50.828;3.264;2022-12-07T07:56:56;15.00;;;4.00;;
21237;SDS011;10777;50.828;3.264;2022-12-07T07:59:22;12.20;;;4.10;;
21237;SDS011;10777;50.828;3.264;2022-12-07T08:01:49;13.73;;;4.80;;
21237;SDS011;10777;50.828;3.264;2022-12-07T08:04:15;8.83;;;3.57;;
21237;SDS011;10777;50.828;3.264;2022-12-07T08:06:41;12.60;;;4.17;;
21237;SDS011;10777;50.828;3.264;2022-12-07T08:09:07;14.73;;;3.97;;
21237;SDS011;10777;50.828;3.264;2022-12-07T08:11:33;13.80;;;4.33;;
21237;SDS011;10777;50.828;3.264;2022-12-07T08:14:00;24.47;;;7.73;;
21237;SDS011;10777;50.828;3.264;2022-12-07T08:16:25;32.53;;;6.17;;
21237;SDS011;10777;50.828;3.264;2022-12-07T08:18:51;32.87;;;5.43;;
21237;SDS011;10777;50.828;3.264;2022-12-07T08:21:17;15.20;;;4.63;;
21237;SDS011;10777;50.828;3.264;2022-12-07T08:23:43;8.87;;;3.40;;
21237;SDS011;10777;50.828;3.264;2022-12-07T08:26:10;15.00;;;3.97;;
21237;SDS011;10777;50.828;3.264;2022-12-07T08:28:37;14.63;;;3.93;;
21237;SDS011;10777;50.828;3.264;2022-12-07T08:31:03;12.20;;;4.50;;
21237;SDS011;10777;50.828;3.264;2022-12-07T08:33:31;8.30;;;3.73;;
21237;SDS011;10777;50.828;3.264;2022-12-07T08:36:01;12.47;;;4.53;;
21237;SDS011;10777;50.828;3.264;2022-12-07T08:38:27;12.10;;;4.33;;
21237;SDS011;10777;50.828;3.264;2022-12-07T08:40:54;16.67;;;4.10;;
21237;SDS011;10777;50.828;3.264;2022-12-07T08:43:21;20.07;;;4.50;;
21237;SDS011;10777;50.828;3.264;2022-12-07T08:45:47;12.30;;;4.80;;
21237;SDS011;10777;50.828;3.264;2022-12-07T08:48:18;12.27;;;3.70;;
21237;SDS011;10777;50.828;3.264;2022-12-07T08:50:47;15.47;;;4.27;;
21237;SDS011;10777;50.828;3.264;2022-12-07T08:53:13;16.37;;;4.23;;
21237;SDS011;10777;50.828;3.264;2022-12-07T08:55:39;11.07;;;4.10;;
21237;SDS011;10777;50.828;3.264;2022-12-07T08:58:05;14.67;;;4.70;;
21237;SDS011;10777;50.828;3.264;2022-12-07T09:00:30;9.87;;;4.17;;
21237;SDS011;10777;50.828;3.264;2022-12-07T09:02:56;8.80;;;4.20;;
21237;SDS011;10777;50.828;3.264;2022-12-07T09:05:22;8.37;;;3.97;;
21237;SDS011;10777;50.828;3.264;2022-12-07T09:07:48;14.97;;;4.30;;
21237;SDS011;10777;50.828;3.264;2022-12-07T09:10:18;16.47;;;4.53;;
21237;SDS011;10777;50.828;3.264;2022-12-07T09:12:43;15.17;;;4.63;;
21237;SDS011;10777;50.828;3.264;2022-12-07T09:15:09;12.87;;;4.77;;
21237;SDS011;10777;50.828;3.264;2022-12-07T09:17:35;14.87;;;4.40;;
21237;SDS011;10777;50.828;3.264;2022-12-07T09:20:01;9.90;;;4.00;;
21237;SDS011;10777;50.828;3.264;2022-12-07T09:22:28;10.70;;;3.53;;
21237;SDS011;10777;50.828;3.264;2022-12-07T09:24:56;11.40;;;3.40;;
21237;SDS011;10777;50.828;3.264;2022-12-07T09:27:22;13.83;;;3.97;;
21237;SDS011;10777;50.828;3.264;2022-12-07T09:29:48;11.10;;;3.50;;
21237;SDS011;10777;50.828;3.264;2022-12-07T09:32:13;9.83;;;3.17;;
21237;SDS011;10777;50.828;3.264;2022-12-07T09:34:39;10.73;;;4.23;;
21237;SDS011;10777;50.828;3.264;2022-12-07T09:37:05;9.73;;;4.60;;
21237;SDS011;10777;50.828;3.264;2022-12-07T09:39:31;10.80;;;3.53;;
21237;SDS011;10777;50.828;3.264;2022-12-07T09:41:57;13.57;;;3.33;;
21237;SDS011;10777;50.828;3.264;2022-12-07T09:44:24;12.57;;;3.10;;
21237;SDS011;10777;50.828;3.264;2022-12-07T09:46:51;12.00;;;4.00;;
21237;SDS011;10777;50.828;3.264;2022-12-07T09:49:20;9.33;;;3.40;;
21237;SDS011;10777;50.828;3.264;2022-12-07T09:51:47;12.57;;;3.20;;
21237;SDS011;10777;50.828;3.264;2022-12-07T09:54:24;6.23;;;3.37;;
21237;SDS011;10777;50.828;3.264;2022-12-07T09:56:49;14.90;;;4.53;;
21237;SDS011;10777;50.828;3.264;2022-12-07T09:59:17;12.63;;;3.87;;
21237;SDS011;10777;50.828;3.264;2022-12-07T10:01:43;10.40;;;4.47;;
21237;SDS011;10777;50.828;3.264;2022-12-07T10:04:13;12.70;;;4.10;;
21237;SDS011;10777;50.828;3.264;2022-12-07T10:06:42;13.03;;;4.07;;
21237;SDS011;10777;50.828;3.264;2022-12-07T10:09:09;10.50;;;4.17;;
21237;SDS011;10777;50.828;3.264;2022-12-07T10:11:57;11.93;;;3.60;;
21237;SDS011;10777;50.828;3.264;2022-12-07T10:14:24;13.03;;;2.80;;
21237;SDS011;10777;50.828;3.264;2022-12-07T10:16:54;7.63;;;2.73;;
21237;SDS011;10777;50.828;3.264;2022-12-07T10:19:28;8.90;;;2.80;;
21237;SDS011;10777;50.828;3.264;2022-12-07T10:22:14;9.73;;;3.23;;
21237;SDS011;10777;50.828;3.264;2022-12-07T10:24:42;6.40;;;2.30;;
21237;SDS011;10777;50.828;3.264;2022-12-07T10:27:19;6.10;;;2.60;;
21237;SDS011;10777;50.828;3.264;2022-12-07T10:29:55;8.33;;;2.70;;
21237;SDS011;10777;50.828;3.264;2022-12-07T10:32:32;12.37;;;2.73;;
21237;SDS011;10777;50.828;3.264;2022-12-07T10:37:48;7.27;;;3.03;;
21237;SDS011;10777;50.828;3.264;2022-12-07T10:40:32;9.93;;;2.50;;
21237;SDS011;10777;50.828;3.264;2022-12-07T10:43:02;10.23;;;2.30;;
21237;SDS011;10777;50.828;3.264;2022-12-07T10:45:30;17.67;;;3.17;;
21237;SDS011;10777;50.828;3.264;2022-12-07T10:48:08;12.00;;;4.03;;
21237;SDS011;10777;50.828;3.264;2022-12-07T10:50:47;6.23;;;2.57;;
21237;SDS011;10777;50.828;3.264;2022-12-07T10:53:30;6.43;;;2.57;;
21237;SDS011;10777;50.828;3.264;2022-12-07T10:56:14;12.60;;;3.20;;
21237;SDS011;10777;50.828;3.264;2022-12-07T11:01:50;9.43;;;2.50;;
21237;SDS011;10777;50.828;3.264;2022-12-07T11:04:33;5.70;;;2.10;;
21237;SDS011;10777;50.828;3.264;2022-12-07T11:07:30;8.07;;;2.47;;
21237;SDS011;10777;50.828;3.264;2022-12-07T11:13:14;3.33;;;1.60;;
21237;SDS011;10777;50.828;3.264;2022-12-07T11:16:06;4.13;;;1.60;;
21237;SDS011;10777;50.828;3.264;2022-12-07T11:19:05;4.37;;;2.00;;
21237;SDS011;10777;50.828;3.264;2022-12-07T11:21:56;3.27;;;1.77;;
21237;SDS011;10777;50.828;3.264;2022-12-07T11:24:32;7.37;;;1.70;;
21237;SDS011;10777;50.828;3.264;2022-12-07T11:27:19;7.53;;;2.20;;
21237;SDS011;10777;50.828;3.264;2022-12-07T11:30:03;9.57;;;1.97;;
21237;SDS011;10777;50.828;3.264;2022-12-07T11:33:04;6.67;;;2.27;;
21237;SDS011;10777;50.828;3.264;2022-12-07T11:35:45;6.43;;;2.13;;
21237;SDS011;10777;50.828;3.264;2022-12-07T11:38:42;9.30;;;2.40;;
21237;SDS011;10777;50.828;3.264;2022-12-07T11:41:13;13.57;;;2.40;;
21237;SDS011;10777;50.828;3.264;2022-12-07T11:46:39;10.77;;;1.93;;
21237;SDS011;10777;50.828;3.264;2022-12-07T11:49:15;5.17;;;4.23;;
21237;SDS011;10777;50.828;3.264;2022-12-07T11:51:46;8.57;;;2.80;;
21237;SDS011;10777;50.828;3.264;2022-12-07T11:54:19;4.83;;;1.80;;
21237;SDS011;10777;50.828;3.264;2022-12-07T11:56:50;9.40;;;2.37;;
21237;SDS011;10777;50.828;3.264;2022-12-07T11:59:22;9.40;;;2.00;;
21237;SDS011;10777;50.828;3.264;2022-12-07T12:01:57;9.47;;;2.87;;
21237;SDS011;10777;50.828;3.264;2022-12-07T12:04:47;8.07;;;2.40;;
21237;SDS011;10777;50.828;3.264;2022-12-07T12:07:21;7.67;;;2.27;;
21237;SDS011;10777;50.828;3.264;2022-12-07T12:09:52;5.27;;;1.80;;
21237;SDS011;10777;50.828;3.264;2022-12-07T12:15:26;7.60;;;2.20;;
21237;SDS011;10777;50.828;3.264;2022-12-07T12:18:09;8.50;;;2.43;;
21237;SDS011;10777;50.828;3.264;2022-12-07T12:20:50;6.60;;;2.70;;
21237;SDS011;10777;50.828;3.264;2022-12-07T12:23:23;3.97;;;1.70;;
21237;SDS011;10777;50.828;3.264;2022-12-07T12:25:58;11.20;;;2.60;;
21237;SDS011;10777;50.828;3.264;2022-12-07T12:28:38;4.40;;;1.50;;
21237;SDS011;10777;50.828;3.264;2022-12-07T12:31:09;3.03;;;1.40;;
21237;SDS011;10777;50.828;3.264;2022-12-07T12:33:56;5.03;;;2.00;;
21237;SDS011;10777;50.828;3.264;2022-12-07T12:36:42;4.80;;;1.70;;
21237;SDS011;10777;50.828;3.264;2022-12-07T12:39:15;7.83;;;1.40;;
21237;SDS011;10777;50.828;3.264;2022-12-07T12:41:52;3.43;;;1.20;;
21237;SDS011;10777;50.828;3.264;2022-12-07T12:44:39;2.90;;;1.33;;
21237;SDS011;10777;50.828;3.264;2022-12-07T12:50:25;10.40;;;1.77;;
21237;SDS011;10777;50.828;3.264;2022-12-07T12:52:54;6.80;;;1.40;;
21237;SDS011;10777;50.828;3.264;2022-12-07T12:55:27;9.43;;;1.50;;
21237;SDS011;10777;50.828;3.264;2022-12-07T12:58:22;2.63;;;1.63;;
21237;SDS011;10777;50.828;3.264;2022-12-07T13:04:01;13.87;;;2.67;;
21237;SDS011;10777;50.828;3.264;2022-12-07T13:06:38;7.63;;;1.83;;
21237;SDS011;10777;50.828;3.264;2022-12-07T13:09:15;5.33;;;1.70;;
21237;SDS011;10777;50.828;3.264;2022-12-07T13:11:55;6.80;;;2.10;;
21237;SDS011;10777;50.828;3.264;2022-12-07T13:14:43;4.97;;;1.77;;
21237;SDS011;10777;50.828;3.264;2022-12-07T13:26:22;8.53;;;2.43;;
21237;SDS011;10777;50.828;3.264;2022-12-07T13:29:10;5.97;;;1.67;;
21237;SDS011;10777;50.828;3.264;2022-12-07T13:31:39;13.77;;;1.90;;
21237;SDS011;10777;50.828;3.264;2022-12-07T13:37:00;5.57;;;1.60;;
21237;SDS011;10777;50.828;3.264;2022-12-07T13:39:32;7.07;;;1.77;;
21237;SDS011;10777;50.828;3.264;2022-12-07T13:41:59;6.83;;;2.17;;
21237;SDS011;10777;50.828;3.264;2022-12-07T13:44:40;11.70;;;2.33;;
21237;SDS011;10777;50.828;3.264;2022-12-07T13:47:16;3.90;;;1.73;;
21237;SDS011;10777;50.828;3.264;2022-12-07T13:50:21;8.23;;;1.70;;
21237;SDS011;10777;50.828;3.264;2022-12-07T13:52:50;6.70;;;1.80;;
21237;SDS011;10777;50.828;3.264;2022-12-07T13:55:19;6.17;;;2.10;;
21237;SDS011;10777;50.828;3.264;2022-12-07T13:57:46;11.00;;;1.87;;
21237;SDS011;10777;50.828;3.264;2022-12-07T14:00:16;4.00;;;2.13;;
21237;SDS011;10777;50.828;3.264;2022-12-07T14:02:57;14.23;;;2.23;;
21237;SDS011;10777;50.828;3.264;2022-12-07T14:05:28;6.17;;;1.60;;
21237;SDS011;10777;50.828;3.264;2022-12-07T14:07:58;5.33;;;2.20;;
21237;SDS011;10777;50.828;3.264;2022-12-07T14:10:29;9.57;;;2.03;;
21237;SDS011;10777;50.828;3.264;2022-12-07T14:13:00;5.97;;;2.07;;
21237;SDS011;10777;50.828;3.264;2022-12-07T14:15:31;6.40;;;2.80;;
21237;SDS011;10777;50.828;3.264;2022-12-07T14:18:00;9.43;;;2.57;;
21237;SDS011;10777;50.828;3.264;2022-12-07T14:20:30;11.23;;;2.97;;
21237;SDS011;10777;50.828;3.264;2022-12-07T14:23:01;9.47;;;2.03;;
21237;SDS011;10777;50.828;3.264;2022-12-07T14:25:44;4.13;;;1.87;;
21237;SDS011;10777;50.828;3.264;2022-12-07T14:30:59;5.17;;;1.10;;
21237;SDS011;10777;50.828;3.264;2022-12-07T14:33:26;4.47;;;1.00;;
21237;SDS011;10777;50.828;3.264;2022-12-07T14:35:52;1.63;;;1.10;;
21237;SDS011;10777;50.828;3.264;2022-12-07T14:38:20;1.70;;;0.90;;
21237;SDS011;10777;50.828;3.264;2022-12-07T14:40:47;3.93;;;0.97;;
21237;SDS011;10777;50.828;3.264;2022-12-07T14:43:14;1.83;;;1.17;;
21237;SDS011;10777;50.828;3.264;2022-12-07T14:45:41;3.60;;;1.13;;
21237;SDS011;10777;50.828;3.264;2022-12-07T14:48:07;4.67;;;1.17;;
21237;SDS011;10777;50.828;3.264;2022-12-07T14:50:37;3.33;;;1.20;;
21237;SDS011;10777;50.828;3.264;2022-12-07T14:53:13;5.30;;;1.20;;
21237;SDS011;10777;50.828;3.264;2022-12-07T14:55:41;3.77;;;1.60;;
21237;SDS011;10777;50.828;3.264;2022-12-07T14:58:12;5.00;;;1.70;;
21237;SDS011;10777;50.828;3.264;2022-12-07T15:00:40;5.53;;;2.60;;
21237;SDS011;10777;50.828;3.264;2022-12-07T15:03:05;8.83;;;2.23;;
21237;SDS011;10777;50.828;3.264;2022-12-07T15:05:31;5.77;;;2.17;;
21237;SDS011;10777;50.828;3.264;2022-12-07T15:07:58;6.40;;;2.60;;
21237;SDS011;10777;50.828;3.264;2022-12-07T15:10:25;6.50;;;2.20;;
21237;SDS011;10777;50.828;3.264;2022-12-07T15:12:55;5.43;;;2.10;;
21237;SDS011;10777;50.828;3.264;2022-12-07T15:15:41;6.83;;;2.30;;
21237;SDS011;10777;50.828;3.264;2022-12-07T15:18:07;5.13;;;2.43;;
21237;SDS011;10777;50.828;3.264;2022-12-07T15:20:33;6.37;;;2.30;;
21237;SDS011;10777;50.828;3.264;2022-12-07T15:22:58;10.43;;;3.27;;
21237;SDS011;10777;50.828;3.264;2022-12-07T15:25:24;10.87;;;3.00;;
21237;SDS011;10777;50.828;3.264;2022-12-07T15:27:50;10.20;;;3.10;;
21237;SDS011;10777;50.828;3.264;2022-12-07T15:30:16;8.80;;;3.77;;
21237;SDS011;10777;50.828;3.264;2022-12-07T15:32:41;7.70;;;3.20;;
21237;SDS011;10777;50.828;3.264;2022-12-07T15:35:07;5.43;;;1.87;;
21237;SDS011;10777;50.828;3.264;2022-12-07T15:37:33;2.57;;;1.43;;
21237;SDS011;10777;50.828;3.264;2022-12-07T15:39:59;4.97;;;1.70;;